Aérodrome :







RETROUVEZ-NOUS SUR...

 
LOGIN :

S'inscrire | Disclaimer

   EN    FR    IT 

 









Légende :    VFR   VFR Marginal   IFR   IFR Intensif   IFR Très Intensif
Visi : 
Plafond : 
>= 8 km
>= 3000ft
5 à 8 km
1000 à 3000 ft
1500m à 5 km
500 à 1000 ft
800 à 1500m
200 à 500 ft
< 800m
< 200 ft
Symboles :   Orages  Brouillard  Fortes neiges  Fortes précipitations  Vent > 20 kt






- Altitude de l'aérodrome : 488 ft
- Code IATA : EEN


KEEN - Dillant Hopkins

DERNIER METAR :
  • 271256Z AUTO 28004KT 10SM BKN009 19/17 A3022 RMK AO2 SLP238 T01940172 $

METARs EXPIRÉS :
  • 271222Z AUTO 22003KT 10SM OVC007 18/17 A3023 RMK AO2 $
  • 271156Z AUTO 14003KT 8SM OVC005 17/16 A3023 RMK AO2 SLP238 T01720161 10172 20139 52006 $
  • 271114Z AUTO 20004KT 10SM OVC005 16/16 A3022 RMK AO2 CIG 005V008 $
  • 271056Z AUTO 21004KT 6SM BR OVC007 16/16 A3022 RMK AO2 SLP235 T01610161 $
  • 271033Z AUTO 00000KT 10SM BKN007 15/15 A3022 RMK AO2 $
  • 271010Z AUTO 00000KT 7SM CLR 14/14 A3022 RMK AO2 $

TAF N/A
FIR KZBW / Amérique du Nord



MET'MAP, la Météo Aéronautique d'un coup d'oeil ! - Copyright ORBIFLY Décembre 2007 - Disclaimer

ORBIFLY MET'MAP TEAM :

Programmation & Développement : Alexandra Zaïnal
Sur une idée originale de : Baudouin d'Aumeries
Assistance à la programmation : Marc-Olivier Méhu
Soutien technique & logistique : Manuel Goepfert

Contact : metmap@orbifly.com




SOURCES & CREDITS :

   NOAA